createdAt,value
2019-01-27T00:00:12.836Z,986.82
2019-01-27T00:00:38.946Z,986.78
2019-01-27T00:01:05.048Z,986.78
2019-01-27T00:01:31.149Z,986.74
2019-01-27T00:01:57.258Z,986.81
2019-01-27T00:02:23.367Z,986.78
2019-01-27T00:02:49.472Z,986.77
2019-01-27T00:03:15.585Z,986.8
2019-01-27T00:03:41.687Z,986.7
2019-01-27T00:04:07.837Z,986.71
2019-01-27T00:04:33.956Z,986.75
2019-01-27T00:05:00.102Z,986.73
2019-01-27T00:05:26.220Z,986.68
2019-01-27T00:05:52.331Z,986.65
2019-01-27T00:06:18.431Z,986.66
2019-01-27T00:06:44.537Z,986.74
2019-01-27T00:07:10.654Z,986.67
2019-01-27T00:07:36.771Z,986.68
2019-01-27T00:08:02.881Z,986.58
2019-01-27T00:08:30.007Z,986.62
2019-01-27T00:08:56.143Z,986.61
2019-01-27T00:09:22.255Z,986.59
2019-01-27T00:09:48.360Z,986.66
2019-01-27T00:10:14.470Z,986.54
2019-01-27T00:10:40.589Z,986.58
2019-01-27T00:11:06.688Z,986.56
2019-01-27T00:11:32.797Z,986.53
2019-01-27T00:11:58.905Z,986.53
2019-01-27T00:12:25.061Z,986.55
2019-01-27T00:12:51.159Z,986.49
2019-01-27T00:13:17.267Z,986.41
2019-01-27T00:13:43.369Z,986.5
2019-01-27T00:14:09.477Z,986.44
2019-01-27T00:14:35.605Z,986.46
2019-01-27T00:15:01.739Z,986.47
2019-01-27T00:15:27.845Z,986.41
2019-01-27T00:15:53.952Z,986.43
2019-01-27T00:16:20.107Z,986.41
2019-01-27T00:16:46.235Z,986.43
2019-01-27T00:17:12.344Z,986.44
2019-01-27T00:17:38.450Z,986.44
2019-01-27T00:18:04.548Z,986.43
2019-01-27T00:18:30.655Z,986.4
2019-01-27T00:18:56.765Z,986.36
2019-01-27T00:19:22.868Z,986.43
2019-01-27T00:19:48.977Z,986.39
2019-01-27T00:20:15.085Z,986.42
2019-01-27T00:20:41.191Z,986.42
2019-01-27T00:21:07.301Z,986.42
2019-01-27T00:21:33.418Z,986.43
2019-01-27T00:21:59.521Z,986.37
2019-01-27T00:22:25.628Z,986.36
2019-01-27T00:22:51.766Z,986.26
2019-01-27T00:23:18.013Z,986.31
2019-01-27T00:23:44.116Z,986.29
2019-01-27T00:24:10.278Z,986.27
2019-01-27T00:24:36.417Z,986.3
2019-01-27T00:25:02.767Z,986.31
2019-01-27T00:25:28.877Z,986.36
2019-01-27T00:25:54.989Z,986.43
2019-01-27T00:26:21.089Z,986.32
2019-01-27T00:26:47.204Z,986.33
2019-01-27T00:27:13.347Z,986.31
2019-01-27T00:27:39.470Z,986.28
2019-01-27T00:28:05.571Z,986.21
2019-01-27T00:28:31.712Z,986.24
2019-01-27T00:28:57.816Z,986.27
2019-01-27T00:29:23.927Z,986.3
2019-01-27T00:29:50.024Z,986.19
2019-01-27T00:30:16.128Z,986.18
2019-01-27T00:30:42.236Z,986.28
2019-01-27T00:31:08.336Z,986.17
2019-01-27T00:31:34.479Z,986.13
2019-01-27T00:32:00.614Z,986.1
2019-01-27T00:32:26.717Z,986.13
2019-01-27T00:32:52.855Z,986.04
2019-01-27T00:33:18.976Z,986.01
2019-01-27T00:33:45.073Z,986.1
2019-01-27T00:34:11.178Z,986.11
2019-01-27T00:34:37.287Z,986.06
2019-01-27T00:35:03.444Z,986.15
2019-01-27T00:35:29.557Z,986.08
2019-01-27T00:35:55.695Z,986.04
2019-01-27T00:36:21.791Z,986.01
2019-01-27T00:36:47.894Z,986.03
2019-01-27T00:37:13.995Z,985.97
2019-01-27T00:37:40.130Z,985.95
2019-01-27T00:38:06.280Z,986
2019-01-27T00:38:32.448Z,986
2019-01-27T00:38:58.544Z,986.01
2019-01-27T00:39:24.653Z,986.02
2019-01-27T00:39:50.913Z,986.01
2019-01-27T00:40:17.061Z,985.9
2019-01-27T00:40:43.177Z,985.93
2019-01-27T00:41:09.273Z,986.05
2019-01-27T00:41:35.387Z,985.99
2019-01-27T00:42:01.577Z,985.97
2019-01-27T00:42:27.701Z,985.94
2019-01-27T00:42:53.805Z,985.91
2019-01-27T00:43:19.911Z,985.96
2019-01-27T00:43:46.045Z,985.9
2019-01-27T00:44:12.151Z,986.01
2019-01-27T00:44:38.257Z,985.95
2019-01-27T00:45:04.394Z,985.86
2019-01-27T00:45:30.503Z,985.8
2019-01-27T00:45:56.609Z,985.78
2019-01-27T00:46:22.737Z,985.79
2019-01-27T00:46:48.860Z,985.87
2019-01-27T00:47:14.953Z,985.88
2019-01-27T00:47:41.064Z,985.85
2019-01-27T00:48:07.176Z,985.81
2019-01-27T00:48:33.280Z,985.85
2019-01-27T00:48:59.379Z,985.79
2019-01-27T00:49:25.487Z,985.89
2019-01-27T00:49:51.616Z,985.79
2019-01-27T00:50:17.724Z,985.73
2019-01-27T00:50:43.860Z,985.81
2019-01-27T00:51:09.971Z,985.78
2019-01-27T00:51:36.080Z,985.75
2019-01-27T00:52:02.179Z,985.76
2019-01-27T00:52:28.290Z,985.75
2019-01-27T00:52:54.421Z,985.68
2019-01-27T00:53:20.562Z,985.66
2019-01-27T00:53:46.666Z,985.68
2019-01-27T00:54:12.776Z,985.83
2019-01-27T00:54:38.882Z,985.69
2019-01-27T00:55:05.019Z,985.84
2019-01-27T00:55:31.146Z,985.74
2019-01-27T00:55:57.249Z,985.89
2019-01-27T00:56:23.352Z,985.67
2019-01-27T00:56:49.456Z,985.75
2019-01-27T00:57:15.565Z,985.71
2019-01-27T00:57:41.672Z,985.83
2019-01-27T00:58:07.845Z,985.77
2019-01-27T00:58:33.983Z,985.71
2019-01-27T00:59:00.089Z,985.59
2019-01-27T00:59:26.199Z,985.54
2019-01-27T00:59:52.311Z,985.65
2019-01-27T01:00:18.445Z,985.69
2019-01-27T01:00:44.546Z,985.57
2019-01-27T01:01:10.655Z,985.62
2019-01-27T01:01:36.797Z,985.55
2019-01-27T01:02:02.925Z,985.61
2019-01-27T01:02:29.026Z,985.6
2019-01-27T01:02:55.133Z,985.53
2019-01-27T01:03:21.234Z,985.54
2019-01-27T01:03:47.346Z,985.57
2019-01-27T01:04:13.501Z,985.54
2019-01-27T01:04:39.639Z,985.53
2019-01-27T01:05:05.746Z,985.53
2019-01-27T01:05:31.847Z,985.46
2019-01-27T01:05:57.955Z,985.49
2019-01-27T01:06:24.062Z,985.47
2019-01-27T01:06:50.372Z,985.43
2019-01-27T01:07:16.483Z,985.44
2019-01-27T01:07:42.582Z,985.48
2019-01-27T01:08:08.687Z,985.44
2019-01-27T01:08:34.820Z,985.44
2019-01-27T01:09:00.989Z,985.39
2019-01-27T01:09:27.097Z,985.44
2019-01-27T01:09:53.307Z,985.46
2019-01-27T01:10:19.423Z,985.47
2019-01-27T01:10:45.531Z,985.48
2019-01-27T01:11:11.638Z,985.43
2019-01-27T01:11:37.771Z,985.43
2019-01-27T01:12:03.914Z,985.39
2019-01-27T01:12:30.020Z,985.35
2019-01-27T01:12:56.186Z,985.36
2019-01-27T01:13:22.278Z,985.36
2019-01-27T01:13:48.395Z,985.34
2019-01-27T01:14:14.557Z,985.4
2019-01-27T01:14:40.666Z,985.45
2019-01-27T01:15:06.774Z,985.35
2019-01-27T01:15:32.883Z,985.41
2019-01-27T01:15:59.019Z,985.38
2019-01-27T01:16:25.117Z,985.25
2019-01-27T01:16:51.232Z,985.32
2019-01-27T01:17:17.333Z,985.31
2019-01-27T01:17:43.442Z,985.35
2019-01-27T01:18:09.541Z,985.26
2019-01-27T01:18:35.685Z,985.33
2019-01-27T01:19:01.819Z,985.25
2019-01-27T01:19:27.917Z,985.36
2019-01-27T01:19:54.025Z,985.24
2019-01-27T01:20:20.134Z,985.22
2019-01-27T01:20:46.269Z,985.24
2019-01-27T01:21:12.375Z,985.24
2019-01-27T01:21:38.482Z,985.22
2019-01-27T01:22:04.593Z,985.17
2019-01-27T01:22:30.697Z,985.14
2019-01-27T01:22:56.830Z,985.2
2019-01-27T01:23:22.936Z,985.18
2019-01-27T01:23:49.068Z,985.16
2019-01-27T01:24:15.175Z,985.2
2019-01-27T01:24:41.277Z,985.21
2019-01-27T01:25:07.384Z,985.23
2019-01-27T01:25:33.490Z,985.07
2019-01-27T01:25:59.585Z,985.17
2019-01-27T01:26:25.698Z,985.21
2019-01-27T01:26:51.796Z,985.12
2019-01-27T01:27:17.904Z,985.14
2019-01-27T01:27:44.007Z,985.08
2019-01-27T01:28:10.119Z,985.13
2019-01-27T01:28:36.228Z,985.11
2019-01-27T01:29:02.337Z,985.14
2019-01-27T01:29:28.441Z,985.15
2019-01-27T01:29:54.542Z,985.12
2019-01-27T01:30:20.647Z,985.13
2019-01-27T01:30:46.804Z,985.12
2019-01-27T01:31:12.913Z,985.13
2019-01-27T01:31:39.021Z,985.22
2019-01-27T01:32:05.125Z,985.13
2019-01-27T01:32:31.261Z,985.16
2019-01-27T01:32:57.420Z,985.24
2019-01-27T01:33:23.519Z,985.2
2019-01-27T01:33:49.627Z,985.12
2019-01-27T01:34:15.740Z,985.13
2019-01-27T01:34:41.876Z,985.11
2019-01-27T01:35:08.007Z,985.08
2019-01-27T01:35:34.147Z,985.14
2019-01-27T01:36:00.249Z,985.03
2019-01-27T01:36:26.360Z,985.05
2019-01-27T01:36:52.462Z,985.17
2019-01-27T01:37:18.572Z,985.02
2019-01-27T01:37:44.697Z,985.08
2019-01-27T01:38:10.797Z,985.09
2019-01-27T01:38:36.899Z,985.05
2019-01-27T01:39:03.002Z,984.96
2019-01-27T01:39:29.109Z,985.02
2019-01-27T01:39:55.221Z,985.06
2019-01-27T01:40:21.323Z,985.07
2019-01-27T01:40:47.992Z,985.02
2019-01-27T01:41:13.563Z,985.05
2019-01-27T01:41:39.665Z,985
2019-01-27T01:42:05.771Z,985.02
2019-01-27T01:42:31.879Z,984.94
2019-01-27T01:42:58.010Z,984.97
2019-01-27T01:43:24.176Z,984.98
2019-01-27T01:43:50.306Z,984.96
2019-01-27T01:44:16.407Z,984.97
2019-01-27T01:44:42.515Z,984.91
2019-01-27T01:45:08.650Z,984.96
2019-01-27T01:45:34.755Z,984.89
2019-01-27T01:46:00.855Z,984.93
2019-01-27T01:46:26.963Z,984.99
2019-01-27T01:46:53.065Z,984.92
2019-01-27T01:47:19.171Z,984.91
2019-01-27T01:47:45.311Z,984.84
2019-01-27T01:48:11.418Z,984.91
2019-01-27T01:48:37.554Z,984.84
2019-01-27T01:49:03.657Z,984.82
2019-01-27T01:49:29.763Z,984.91
2019-01-27T01:49:55.874Z,984.89
2019-01-27T01:50:21.982Z,984.83
2019-01-27T01:50:48.094Z,984.84
2019-01-27T01:51:14.226Z,984.81
2019-01-27T01:51:40.333Z,984.83
2019-01-27T01:52:06.436Z,984.79
2019-01-27T01:52:32.660Z,984.77
2019-01-27T01:52:58.792Z,984.78
2019-01-27T01:53:24.901Z,984.79
2019-01-27T01:53:51.012Z,984.73
2019-01-27T01:54:17.119Z,984.67
2019-01-27T01:54:43.225Z,984.69
2019-01-27T01:55:09.326Z,984.68
2019-01-27T01:55:35.440Z,984.65
2019-01-27T01:56:01.544Z,984.72
2019-01-27T01:56:27.647Z,984.66
2019-01-27T01:56:53.777Z,984.59
2019-01-27T01:57:19.884Z,984.61
2019-01-27T01:57:45.986Z,984.56
2019-01-27T01:58:12.098Z,984.57
2019-01-27T01:58:38.201Z,984.6
2019-01-27T01:59:04.304Z,984.51
2019-01-27T01:59:30.416Z,984.52
2019-01-27T01:59:56.551Z,984.5
2019-01-27T02:00:22.651Z,984.56
2019-01-27T02:00:48.756Z,984.57
2019-01-27T02:01:14.861Z,984.59
2019-01-27T02:01:40.966Z,984.58
2019-01-27T02:02:07.104Z,984.48
2019-01-27T02:02:33.239Z,984.52
2019-01-27T02:02:59.339Z,984.51
2019-01-27T02:03:25.449Z,984.48
2019-01-27T02:03:51.583Z,984.5
2019-01-27T02:04:17.771Z,984.5
2019-01-27T02:04:43.906Z,984.43
2019-01-27T02:05:10.091Z,984.47
2019-01-27T02:05:36.200Z,984.41
2019-01-27T02:06:02.324Z,984.44
2019-01-27T02:06:28.465Z,984.4
2019-01-27T02:06:54.571Z,984.43
2019-01-27T02:07:20.678Z,984.37
2019-01-27T02:07:46.786Z,984.36
2019-01-27T02:08:12.892Z,984.38
2019-01-27T02:08:38.995Z,984.4
2019-01-27T02:09:05.106Z,984.36
2019-01-27T02:09:31.375Z,984.32
2019-01-27T02:09:57.424Z,984.32
2019-01-27T02:10:23.550Z,984.29
2019-01-27T02:10:49.662Z,984.27
2019-01-27T02:11:15.786Z,984.29
2019-01-27T02:11:41.896Z,984.29
2019-01-27T02:12:08.001Z,984.29
2019-01-27T02:12:34.109Z,984.37
2019-01-27T02:13:00.213Z,984.25
2019-01-27T02:13:26.322Z,984.21
2019-01-27T02:13:52.431Z,984.24
2019-01-27T02:14:18.563Z,984.24
2019-01-27T02:14:44.674Z,984.25
2019-01-27T02:15:10.776Z,984.21
2019-01-27T02:15:36.913Z,984.27
2019-01-27T02:16:03.023Z,984.29
2019-01-27T02:16:29.123Z,984.2
2019-01-27T02:16:55.257Z,984.19
2019-01-27T02:17:21.381Z,984.2
2019-01-27T02:17:47.517Z,984.19
2019-01-27T02:18:13.621Z,984.21
2019-01-27T02:18:39.727Z,984.19
2019-01-27T02:19:05.843Z,984.1
2019-01-27T02:19:31.943Z,984.21
2019-01-27T02:19:58.050Z,984.17
2019-01-27T02:20:24.156Z,984.11
2019-01-27T02:20:50.270Z,984.18
2019-01-27T02:21:16.404Z,984.13
2019-01-27T02:21:42.514Z,984.13
2019-01-27T02:22:08.640Z,984.12
2019-01-27T02:22:34.742Z,984.07
2019-01-27T02:23:00.843Z,984.07
2019-01-27T02:23:26.954Z,984.08
2019-01-27T02:23:53.052Z,984.09
2019-01-27T02:24:19.161Z,984
2019-01-27T02:24:45.264Z,984.05
2019-01-27T02:25:11.379Z,984.02
2019-01-27T02:25:37.488Z,984.01
2019-01-27T02:26:03.599Z,984.01
2019-01-27T02:26:29.700Z,983.96
2019-01-27T02:26:55.811Z,983.97
2019-01-27T02:27:21.940Z,984
2019-01-27T02:27:48.050Z,983.97
2019-01-27T02:28:14.152Z,983.98
2019-01-27T02:28:40.257Z,983.89
2019-01-27T02:29:06.360Z,983.89
2019-01-27T02:29:32.468Z,983.88
2019-01-27T02:29:58.580Z,983.87
2019-01-27T02:30:24.682Z,983.84
2019-01-27T02:30:50.821Z,983.83
2019-01-27T02:31:16.974Z,983.81
2019-01-27T02:31:43.117Z,983.85
2019-01-27T02:32:09.258Z,983.81
2019-01-27T02:32:35.389Z,983.78
2019-01-27T02:33:01.514Z,983.82
2019-01-27T02:33:27.629Z,983.84
2019-01-27T02:33:53.738Z,983.76
2019-01-27T02:34:19.839Z,983.76
2019-01-27T02:34:45.975Z,983.77
2019-01-27T02:35:12.126Z,983.72
2019-01-27T02:35:38.234Z,983.91
2019-01-27T02:36:04.408Z,983.68
2019-01-27T02:36:30.509Z,983.67
2019-01-27T02:36:56.618Z,983.78
2019-01-27T02:37:22.751Z,983.98
2019-01-27T02:37:48.878Z,983.67
2019-01-27T02:38:15.012Z,983.69
2019-01-27T02:38:41.158Z,983.64
2019-01-27T02:39:07.293Z,983.71
2019-01-27T02:39:33.398Z,983.7
2019-01-27T02:39:59.510Z,983.64
2019-01-27T02:40:25.611Z,983.64
2019-01-27T02:40:51.732Z,983.65
2019-01-27T02:41:17.844Z,983.66
2019-01-27T02:41:43.971Z,983.6
2019-01-27T02:42:10.076Z,983.49
2019-01-27T02:42:36.186Z,983.55
2019-01-27T02:43:02.319Z,983.54
2019-01-27T02:43:28.469Z,983.52
2019-01-27T02:43:54.581Z,983.51
2019-01-27T02:44:20.714Z,983.5
2019-01-27T02:44:46.818Z,983.45
2019-01-27T02:45:12.927Z,983.51
2019-01-27T02:45:39.028Z,983.56
2019-01-27T02:46:05.201Z,983.45
2019-01-27T02:46:31.301Z,983.42
2019-01-27T02:46:57.408Z,983.41
2019-01-27T02:47:23.517Z,983.39
2019-01-27T02:47:49.625Z,983.41
2019-01-27T02:48:15.730Z,983.36
2019-01-27T02:48:41.897Z,983.37
2019-01-27T02:49:08.001Z,983.4
2019-01-27T02:49:34.108Z,983.55
2019-01-27T02:50:00.215Z,983.34
2019-01-27T02:50:26.313Z,983.31
2019-01-27T02:50:52.425Z,983.33
2019-01-27T02:51:18.530Z,983.27
2019-01-27T02:51:44.642Z,983.27
2019-01-27T02:52:10.743Z,983.26
2019-01-27T02:52:36.875Z,983.36
2019-01-27T02:53:03.007Z,983.15
2019-01-27T02:53:29.145Z,983.22
2019-01-27T02:53:55.274Z,983.27
2019-01-27T02:54:21.442Z,983.26
2019-01-27T02:54:47.551Z,983.23
2019-01-27T02:55:13.652Z,983.21
2019-01-27T02:55:39.801Z,983.24
2019-01-27T02:56:05.910Z,983.17
2019-01-27T02:56:32.037Z,983.15
2019-01-27T02:56:58.224Z,983.25
2019-01-27T02:57:24.324Z,983.15
2019-01-27T02:57:50.433Z,983.14
2019-01-27T02:58:16.540Z,983.13
2019-01-27T02:58:42.670Z,983.13
2019-01-27T02:59:08.777Z,983.12
2019-01-27T02:59:34.893Z,983.08
2019-01-27T03:00:01.010Z,983.05
2019-01-27T03:00:27.143Z,983.08
2019-01-27T03:00:53.272Z,983.12
2019-01-27T03:01:19.376Z,983.14
2019-01-27T03:01:45.474Z,983.05
2019-01-27T03:02:11.586Z,983.09
2019-01-27T03:02:37.692Z,983.04
2019-01-27T03:03:03.827Z,982.96
2019-01-27T03:03:29.926Z,982.83
2019-01-27T03:03:56.039Z,983.06
2019-01-27T03:04:22.198Z,983.02
2019-01-27T03:04:48.302Z,983.05
2019-01-27T03:05:14.412Z,983.01
2019-01-27T03:05:40.517Z,983.03
2019-01-27T03:06:06.626Z,983
2019-01-27T03:06:32.733Z,983.03
2019-01-27T03:06:58.855Z,982.96
2019-01-27T03:07:24.999Z,982.97
2019-01-27T03:07:51.106Z,982.96
2019-01-27T03:08:17.206Z,982.88
2019-01-27T03:08:43.311Z,982.9
2019-01-27T03:09:09.416Z,982.81
2019-01-27T03:09:35.516Z,982.82
2019-01-27T03:10:01.622Z,982.87
2019-01-27T03:10:27.758Z,982.82
2019-01-27T03:10:53.902Z,982.8
2019-01-27T03:11:20.119Z,982.86
2019-01-27T03:11:46.221Z,982.82
2019-01-27T03:12:12.359Z,982.84
2019-01-27T03:12:38.507Z,982.81
2019-01-27T03:13:04.616Z,982.85
2019-01-27T03:13:30.721Z,982.79
2019-01-27T03:13:56.862Z,982.83
2019-01-27T03:14:23.002Z,982.91
2019-01-27T03:14:49.107Z,982.82
2019-01-27T03:15:15.221Z,982.8
2019-01-27T03:15:41.349Z,982.91
2019-01-27T03:16:07.451Z,982.91
2019-01-27T03:16:33.557Z,982.85
2019-01-27T03:16:59.659Z,982.89
2019-01-27T03:17:25.800Z,982.86
2019-01-27T03:17:51.900Z,982.87
2019-01-27T03:18:18.008Z,982.79
2019-01-27T03:18:44.115Z,982.81
2019-01-27T03:19:10.219Z,982.87
2019-01-27T03:19:36.328Z,982.97
2019-01-27T03:20:02.431Z,982.83
2019-01-27T03:20:28.538Z,982.96
2019-01-27T03:20:54.638Z,982.81
2019-01-27T03:21:20.760Z,982.8
2019-01-27T03:21:46.867Z,982.84
2019-01-27T03:22:12.979Z,982.81
2019-01-27T03:22:39.076Z,982.78
2019-01-27T03:23:05.246Z,982.74
2019-01-27T03:23:31.353Z,982.76
2019-01-27T03:23:57.452Z,982.69
2019-01-27T03:24:23.584Z,982.73
2019-01-27T03:24:49.692Z,982.71
2019-01-27T03:25:15.824Z,982.75
2019-01-27T03:25:41.936Z,982.73
2019-01-27T03:26:08.061Z,982.72
2019-01-27T03:26:34.200Z,982.66
2019-01-27T03:27:00.320Z,982.71
2019-01-27T03:27:26.432Z,982.73
2019-01-27T03:27:52.559Z,982.63
2019-01-27T03:28:18.671Z,982.64
2019-01-27T03:28:44.771Z,982.63
2019-01-27T03:29:10.907Z,982.55
2019-01-27T03:29:37.013Z,982.64
2019-01-27T03:30:03.114Z,982.57
2019-01-27T03:30:29.397Z,982.55
2019-01-27T03:30:55.551Z,982.58
2019-01-27T03:31:21.744Z,982.63
2019-01-27T03:31:47.899Z,982.59
2019-01-27T03:32:14.087Z,982.48
2019-01-27T03:32:40.301Z,982.49
2019-01-27T03:33:06.491Z,982.49
2019-01-27T03:33:32.675Z,982.48
2019-01-27T03:33:58.782Z,982.45
2019-01-27T03:34:24.896Z,982.47
2019-01-27T03:34:50.996Z,982.48
2019-01-27T03:35:17.110Z,982.45
2019-01-27T03:35:43.251Z,982.46
2019-01-27T03:36:09.386Z,982.52
2019-01-27T03:36:35.523Z,982.53
2019-01-27T03:37:01.677Z,982.53
2019-01-27T03:37:27.837Z,982.53
2019-01-27T03:37:54.009Z,982.43
2019-01-27T03:38:20.115Z,982.5
2019-01-27T03:38:46.306Z,982.5
2019-01-27T03:39:12.414Z,982.48
2019-01-27T03:39:38.520Z,982.45
2019-01-27T03:40:04.622Z,982.46
2019-01-27T03:40:30.731Z,982.41
2019-01-27T03:40:56.871Z,982.45
2019-01-27T03:41:22.981Z,982.47
2019-01-27T03:41:49.084Z,982.41
2019-01-27T03:42:15.188Z,982.41
2019-01-27T03:42:41.296Z,982.43
2019-01-27T03:43:07.399Z,982.43
2019-01-27T03:43:33.510Z,982.49
2019-01-27T03:43:59.609Z,982.34
2019-01-27T03:44:25.725Z,982.34
2019-01-27T03:44:51.868Z,982.32
2019-01-27T03:45:17.973Z,982.37
2019-01-27T03:45:44.079Z,982.33
2019-01-27T03:46:10.203Z,982.22
2019-01-27T03:46:36.312Z,982.26
2019-01-27T03:47:02.408Z,982.26
2019-01-27T03:47:28.551Z,982.25
2019-01-27T03:47:54.664Z,982.2
2019-01-27T03:48:20.785Z,982.32
2019-01-27T03:48:46.918Z,982.19
2019-01-27T03:49:13.056Z,982.26
2019-01-27T03:49:39.159Z,982.28
2019-01-27T03:50:05.267Z,982.2
2019-01-27T03:50:31.396Z,982.15
2019-01-27T03:50:57.497Z,982.23
2019-01-27T03:51:23.602Z,982.12
2019-01-27T03:51:49.734Z,982.18
2019-01-27T03:52:15.844Z,982.2
2019-01-27T03:52:41.948Z,982.2
2019-01-27T03:53:08.059Z,982.19
2019-01-27T03:53:34.250Z,982.22
2019-01-27T03:54:00.371Z,982.1
2019-01-27T03:54:26.500Z,982.13
2019-01-27T03:54:52.639Z,982.15
2019-01-27T03:55:18.771Z,982.14
2019-01-27T03:55:44.911Z,982.15
2019-01-27T03:56:11.037Z,982.14
2019-01-27T03:56:37.145Z,982.12
2019-01-27T03:57:03.275Z,982.11
2019-01-27T03:57:29.380Z,982.17
2019-01-27T03:57:55.476Z,982.16
2019-01-27T03:58:21.587Z,982.19
2019-01-27T03:58:47.689Z,982.09
2019-01-27T03:59:13.795Z,982.13
2019-01-27T03:59:39.936Z,982.17
2019-01-27T04:00:06.045Z,982.16
2019-01-27T04:00:32.182Z,982.18
2019-01-27T04:00:58.316Z,982.12
2019-01-27T04:01:25.334Z,982.14
2019-01-27T04:01:51.460Z,982.13
2019-01-27T04:02:17.589Z,982.11
2019-01-27T04:02:43.684Z,982.11
2019-01-27T04:03:09.816Z,982.05
2019-01-27T04:03:35.926Z,982.05
2019-01-27T04:04:02.033Z,982.17
2019-01-27T04:04:28.163Z,982.02
2019-01-27T04:04:54.267Z,982.04
2019-01-27T04:05:20.398Z,982.04
2019-01-27T04:05:46.546Z,982.08
2019-01-27T04:06:12.646Z,981.99
2019-01-27T04:06:38.776Z,982.01
2019-01-27T04:07:04.943Z,982.09
2019-01-27T04:07:31.043Z,982.01
2019-01-27T04:07:57.159Z,982.01
2019-01-27T04:08:23.285Z,982.03
2019-01-27T04:08:49.425Z,981.97
2019-01-27T04:09:15.539Z,982.02
2019-01-27T04:09:41.663Z,981.98
2019-01-27T04:10:07.763Z,982.04
2019-01-27T04:10:33.881Z,981.98
2019-01-27T04:11:00.469Z,981.99
2019-01-27T04:11:26.597Z,982.01
2019-01-27T04:11:52.712Z,982.02
2019-01-27T04:12:18.883Z,982
2019-01-27T04:12:45.011Z,981.95
2019-01-27T04:13:11.124Z,982.04
2019-01-27T04:13:37.277Z,982.01
2019-01-27T04:14:03.386Z,981.94
2019-01-27T04:14:29.518Z,981.96
2019-01-27T04:14:55.626Z,981.92
2019-01-27T04:15:21.748Z,981.98
2019-01-27T04:15:47.889Z,981.9
2019-01-27T04:16:14.055Z,981.91
2019-01-27T04:16:40.187Z,981.87
2019-01-27T04:17:06.317Z,981.88
2019-01-27T04:17:32.443Z,981.84
2019-01-27T04:17:58.581Z,981.83
2019-01-27T04:18:24.706Z,981.83
2019-01-27T04:18:50.840Z,981.89
2019-01-27T04:19:16.943Z,981.87
2019-01-27T04:19:43.052Z,981.83
2019-01-27T04:20:09.215Z,981.76
2019-01-27T04:20:35.318Z,981.81
2019-01-27T04:21:01.423Z,981.77
2019-01-27T04:21:27.533Z,981.77
2019-01-27T04:21:53.670Z,981.7
2019-01-27T04:22:19.773Z,981.74
2019-01-27T04:22:45.906Z,981.72
2019-01-27T04:23:12.107Z,981.71
2019-01-27T04:23:38.239Z,981.72
2019-01-27T04:24:04.352Z,981.82
2019-01-27T04:24:30.484Z,981.76
2019-01-27T04:24:56.622Z,981.74
2019-01-27T04:25:22.767Z,981.71
2019-01-27T04:25:48.868Z,981.64
2019-01-27T04:26:14.974Z,981.61
2019-01-27T04:26:41.105Z,981.59
2019-01-27T04:27:07.215Z,981.51
2019-01-27T04:27:33.319Z,981.49
2019-01-27T04:27:59.482Z,981.53
2019-01-27T04:28:26.572Z,981.54
2019-01-27T04:28:52.679Z,981.48
2019-01-27T04:29:18.807Z,981.52
2019-01-27T04:29:44.896Z,981.54
2019-01-27T04:30:11.009Z,981.52
2019-01-27T04:30:37.112Z,981.47
2019-01-27T04:31:03.222Z,981.52
2019-01-27T04:31:29.335Z,981.45
2019-01-27T04:31:55.496Z,981.49
2019-01-27T04:32:21.606Z,981.5
2019-01-27T04:32:47.733Z,981.46
2019-01-27T04:33:13.846Z,981.53
2019-01-27T04:33:39.971Z,981.48
2019-01-27T04:34:06.107Z,981.46
2019-01-27T04:34:32.225Z,981.44
2019-01-27T04:34:58.342Z,981.44
2019-01-27T04:35:24.475Z,981.43
2019-01-27T04:35:50.593Z,981.41
2019-01-27T04:36:16.702Z,981.5
2019-01-27T04:36:42.812Z,981.44
2019-01-27T04:37:08.919Z,981.57
2019-01-27T04:37:35.054Z,981.37
2019-01-27T04:38:01.150Z,981.49
2019-01-27T04:38:27.261Z,981.38
2019-01-27T04:38:53.362Z,981.41
2019-01-27T04:39:19.470Z,981.34
2019-01-27T04:39:45.578Z,981.38
2019-01-27T04:40:11.691Z,981.35
2019-01-27T04:40:37.825Z,981.41
2019-01-27T04:41:03.924Z,981.31
2019-01-27T04:41:30.031Z,981.33
2019-01-27T04:41:56.160Z,981.28
2019-01-27T04:42:22.315Z,981.33
2019-01-27T04:42:48.425Z,981.3
2019-01-27T04:43:14.521Z,981.3
2019-01-27T04:43:40.664Z,981.28
2019-01-27T04:44:06.796Z,981.23
2019-01-27T04:44:32.922Z,981.21
2019-01-27T04:44:59.026Z,981.2
2019-01-27T04:45:25.132Z,981.22
2019-01-27T04:45:51.256Z,981.2
2019-01-27T04:46:17.381Z,981.23
2019-01-27T04:46:43.483Z,981.25
2019-01-27T04:47:09.613Z,981.19
2019-01-27T04:47:35.752Z,981.2
2019-01-27T04:48:01.849Z,981.22
2019-01-27T04:48:27.952Z,981.19
2019-01-27T04:48:54.067Z,981.18
2019-01-27T04:49:20.195Z,981.12
2019-01-27T04:49:46.349Z,981.2
2019-01-27T04:50:12.448Z,981.19
2019-01-27T04:50:38.577Z,981.15
2019-01-27T04:51:04.712Z,981.15
2019-01-27T04:51:30.846Z,981.14
2019-01-27T04:51:57.024Z,981.23
2019-01-27T04:52:23.148Z,981.07
2019-01-27T04:52:49.239Z,981.1
2019-01-27T04:53:15.374Z,981.08
2019-01-27T04:53:41.494Z,981.09
2019-01-27T04:54:07.598Z,981.07
2019-01-27T04:54:33.733Z,981.04
2019-01-27T04:54:59.843Z,981.04
2019-01-27T04:55:25.946Z,981.05
2019-01-27T04:55:52.049Z,981.03
2019-01-27T04:56:18.165Z,981.01
2019-01-27T04:56:44.319Z,981.03
2019-01-27T04:57:10.447Z,981.08
2019-01-27T04:57:36.583Z,981.07
2019-01-27T04:58:02.716Z,981.04
2019-01-27T04:58:28.824Z,981.06
2019-01-27T04:58:54.928Z,981
2019-01-27T04:59:21.070Z,981.03
2019-01-27T04:59:47.251Z,981.03
2019-01-27T05:00:13.391Z,980.98
2019-01-27T05:00:39.547Z,981.04
2019-01-27T05:01:05.683Z,980.97
2019-01-27T05:01:31.788Z,981.02
2019-01-27T05:01:57.888Z,981.01
2019-01-27T05:02:23.995Z,980.97
2019-01-27T05:02:50.099Z,980.98
2019-01-27T05:03:16.261Z,980.98
2019-01-27T05:03:42.364Z,980.95
2019-01-27T05:04:08.467Z,980.97
2019-01-27T05:04:34.624Z,980.93
2019-01-27T05:05:00.735Z,980.95
2019-01-27T05:05:26.865Z,980.89
2019-01-27T05:05:52.974Z,980.96
2019-01-27T05:06:19.076Z,980.89
2019-01-27T05:06:45.230Z,980.98
2019-01-27T05:07:11.344Z,980.96
2019-01-27T05:07:37.443Z,980.98
2019-01-27T05:08:03.545Z,980.88
2019-01-27T05:08:29.651Z,980.91
2019-01-27T05:08:55.780Z,980.95
2019-01-27T05:09:21.885Z,980.97
2019-01-27T05:09:48.013Z,980.95
2019-01-27T05:10:14.148Z,980.91
2019-01-27T05:10:40.255Z,980.99
2019-01-27T05:11:06.359Z,980.9
2019-01-27T05:11:32.494Z,980.9
2019-01-27T05:11:58.596Z,980.94
2019-01-27T05:12:24.734Z,980.91
2019-01-27T05:12:50.862Z,980.89
2019-01-27T05:13:17.000Z,980.9
2019-01-27T05:13:43.113Z,980.86
2019-01-27T05:14:09.207Z,980.9
2019-01-27T05:14:35.346Z,980.86
2019-01-27T05:15:01.483Z,980.86
2019-01-27T05:15:27.590Z,980.86
2019-01-27T05:15:53.688Z,980.82
2019-01-27T05:16:19.833Z,980.81
2019-01-27T05:16:45.960Z,980.84
2019-01-27T05:17:12.060Z,980.86
2019-01-27T05:17:38.169Z,980.84
2019-01-27T05:18:04.271Z,980.78
2019-01-27T05:18:30.440Z,980.82
2019-01-27T05:18:56.541Z,980.8
2019-01-27T05:19:22.653Z,980.77
2019-01-27T05:19:48.781Z,980.78
2019-01-27T05:20:14.888Z,980.78
2019-01-27T05:20:40.995Z,980.77
2019-01-27T05:21:07.097Z,980.88
2019-01-27T05:21:34.355Z,980.78
2019-01-27T05:22:00.349Z,980.76
2019-01-27T05:22:26.459Z,980.76
2019-01-27T05:22:52.582Z,980.75
2019-01-27T05:23:18.700Z,980.77
2019-01-27T05:23:44.805Z,980.72
2019-01-27T05:24:10.909Z,980.71
2019-01-27T05:24:37.017Z,980.69
2019-01-27T05:25:03.127Z,980.67
2019-01-27T05:25:29.236Z,980.67
2019-01-27T05:25:55.370Z,980.64
2019-01-27T05:26:21.472Z,980.67
2019-01-27T05:26:47.615Z,980.66
2019-01-27T05:27:13.727Z,980.64